Airfield :
LOGIN :

Register | Disclaimer

   EN    FR    IT 

 










Legend :    VFR   Marginal VFR   IFR   Intensive IFR   Very Intensive IFR
Visi :
Ceiling :
>= 8 km
>= 3000ft
5 to 8 km
1000 to 3000 ft
1500m to 5 km
500 to 1000 ft
800 to 1500m
200 to 500 ft
< 800m
< 200 ft
Symbols :   Thunderstorms  Fog  Heavy snow  Heavy precipitations  Wind > 20 kt
SIGMETs :     Misc.  Thunderstorms  Icing  Turbulence  Mountain Waves  Volcanic Ashes







- Airport Elevation : 464 ft
- IATA code : EVX
- Download approach charts


LFOE - Evreux

CURRENT METAR :
  • 281230Z AUTO 23012KT 9999 FEW044 SCT054 OVC088 21/11 Q1015

EXPIRED METARs :
  • 281200Z AUTO 24011KT 210V270 9999 BKN041 BKN054 BKN140 22/12 Q1015
  • 281130Z AUTO 25013KT 210V280 9999 SCT039 BKN046 BKN180 21/11 Q1015
  • 281100Z AUTO 22012KT 9999 SCT037 BKN043 OVC110 21/11 Q1015
  • 281030Z AUTO 23011KT 9999 BKN035 BKN042 BKN110 21/12 Q1015
  • 281000Z AUTO 23011KT 200V270 9999 BKN028 BKN037 BKN180 20/12 Q1015

TAF TAF LFOE
Valid from the 28 at 09:00 until the 29 at 09:00 UTC


280800Z 2809/2909 23010KT 9999 BKN030
TEMPO 2812/2818 23010G20KT
BECMG 2903/2906 22015G25KT OVC012
No reported NOTAMs for that airfield.



MET'MAP, your aeronautical weather chart ! - Copyright ORBIFLY December 2007 - Disclaimer

ORBIFLY MET'MAP TEAM :

Programming & Development : Alexandra Zaïnal
Concept & Development : Baudouin d'Aumeries
Co-Development & Prog : Marc-Olivier Méhu
Technical & hardware support : Manuel Goepfert

Contact : metmap@orbifly.com




SOURCES & CREDITS :

   NOAA